Elkhart, IN

7:22 AM EDT on September 30, 2016 (GMT -0400)
East Jackson Blvd | | Change Station

Elev 753 ft 41.69 °N, 85.94 °W | Updated 3 seconds ago

Light Rain
Light Rain
60.3 °F
Feels Like 60.3 °F
N
3.8
Wind Variable Wind from NE
Gusts 7.6 mph

Today
High -- | Low -- °F
--% Chance of Precip.
Yesterday
High -- | Low -- °F
Precip. -- in
Pressure 30.10 in
Visibility 7.0 miles
Clouds Mostly Cloudy 1000 ft
Overcast 1500 ft
Dew Point 60 °F
Humidity 99%
Rainfall 0.00 in
Snow Depth Not available.
7:40 AM 7:26 PM
Waning Crescent, 0% visible
METAR KEKM 301055Z 05006KT 7SM -RA BKN010 OVC015 16/14 A3010 RMK AO2
Pressure 30.10 in
Visibility 7.0 miles
Clouds Mostly Cloudy 1000 ft
Overcast 1500 ft
Dew Point 60 °F
Humidity 99%
Rainfall 0.00 in
Snow Depth Not available.
7:40 AM 7:26 PM
Waning Crescent, 0% visible
METAR KEKM 301055Z 05006KT 7SM -RA BKN010 OVC015 16/14 A3010 RMK AO2

10-Day Weather Forecast

Almanac

Astronomy

Sep. 30, 2016 Rise Set
Actual Time
Civil Twilight
Nautical Twilight
Astronomical Twilight
Moon
Length of Visible Light
Length of Day
Tomorrow will be .
, % of the Moon is Illuminated

Today's Extremes

State Highs State Lows

Community

WunderPhotos

Upload Photos

1,942,694 photos uploaded!

WunderBlog® & News

Nearby

Air Quality

  Air Quality AQ Index Pollutant
Not available.

Snow Depth

Station Depth Elevation

Earthquake Activity

City Distance Mag. Time & Date
Minimum magnitude displayed is 2.5.

Coastal Water Temperatures

Place Temperature

Stations

Nearby Weather Stations

Station Location Temp. Windchill Dew Point Humidity Wind Precip. Elev Updated Type
                   

Watches & Warnings

There are currently no watches in effect.